createdAt,value
2023-08-16T00:02:15.250Z,22.85
2023-08-16T00:04:48.120Z,22.82
2023-08-16T00:07:21.293Z,22.78
2023-08-16T00:09:55.763Z,22.74
2023-08-16T00:12:28.602Z,22.69
2023-08-16T00:15:01.312Z,22.66
2023-08-16T00:17:34.068Z,22.63
2023-08-16T00:20:09.922Z,22.60
2023-08-16T00:22:42.722Z,22.57
2023-08-16T00:25:17.073Z,22.52
2023-08-16T00:27:50.453Z,22.51
2023-08-16T00:30:23.340Z,22.49
2023-08-16T00:32:56.353Z,22.47
2023-08-16T00:35:29.114Z,22.45
2023-08-16T00:38:02.309Z,22.42
2023-08-16T00:40:36.548Z,22.40
2023-08-16T00:43:09.485Z,22.39
2023-08-16T00:45:42.720Z,22.35
2023-08-16T00:48:15.873Z,22.33
2023-08-16T00:50:49.102Z,22.31
2023-08-16T00:53:21.841Z,22.28
2023-08-16T00:55:55.993Z,22.26
2023-08-16T01:01:01.470Z,22.20
2023-08-16T01:03:34.934Z,22.17
2023-08-16T01:06:08.044Z,22.15
2023-08-16T01:08:41.104Z,22.13
2023-08-16T01:11:19.198Z,22.10
2023-08-16T01:13:57.357Z,22.08
2023-08-16T01:16:31.280Z,22.06
2023-08-16T01:19:05.413Z,22.04
2023-08-16T01:21:41.739Z,22.01
2023-08-16T01:24:18.889Z,22.00
2023-08-16T01:26:54.252Z,21.96
2023-08-16T01:29:28.525Z,21.93
2023-08-16T01:32:01.649Z,21.92
2023-08-16T01:34:34.605Z,21.89
2023-08-16T01:37:07.371Z,21.86
2023-08-16T01:39:40.762Z,21.85
2023-08-16T01:42:18.314Z,21.83
2023-08-16T01:44:51.917Z,21.81
2023-08-16T01:47:25.277Z,21.79
2023-08-16T01:49:58.964Z,21.78
2023-08-16T01:52:32.634Z,21.75
2023-08-16T01:55:05.962Z,21.73
2023-08-16T01:57:40.125Z,21.69
2023-08-16T02:00:13.992Z,21.67
2023-08-16T02:02:46.934Z,21.65
2023-08-16T02:05:20.145Z,21.62
2023-08-16T02:07:53.017Z,21.60
2023-08-16T02:10:25.920Z,21.58
2023-08-16T02:13:00.143Z,21.53
2023-08-16T02:15:32.997Z,21.50
2023-08-16T02:18:12.027Z,21.48
2023-08-16T02:20:45.155Z,21.43
2023-08-16T02:23:17.934Z,21.40
2023-08-16T02:25:50.807Z,21.38
2023-08-16T02:28:25.029Z,21.34
2023-08-16T02:31:04.835Z,21.31
2023-08-16T02:33:37.764Z,21.28
2023-08-16T02:36:10.725Z,21.26
2023-08-16T02:38:43.522Z,21.23
2023-08-16T02:41:16.523Z,21.20
2023-08-16T02:43:50.818Z,21.16
2023-08-16T02:46:23.641Z,21.13
2023-08-16T02:48:56.507Z,21.11
2023-08-16T02:51:29.327Z,21.08
2023-08-16T02:54:02.129Z,21.07
2023-08-16T02:56:35.059Z,21.04
2023-08-16T02:59:11.795Z,21.01
2023-08-16T03:01:44.579Z,20.99
2023-08-16T03:04:17.876Z,20.96
2023-08-16T03:06:51.112Z,20.94
2023-08-16T03:09:23.998Z,20.91
2023-08-16T03:11:56.812Z,20.89
2023-08-16T03:14:31.057Z,20.86
2023-08-16T03:17:03.940Z,20.85
2023-08-16T03:19:37.160Z,20.80
2023-08-16T03:22:09.982Z,20.79
2023-08-16T03:24:42.736Z,20.76
2023-08-16T03:27:15.655Z,20.74
2023-08-16T03:29:49.824Z,20.71
2023-08-16T03:32:22.630Z,20.69
2023-08-16T03:34:55.517Z,20.69
2023-08-16T03:37:28.480Z,20.66
2023-08-16T03:40:01.314Z,20.63
2023-08-16T03:42:34.127Z,20.61
2023-08-16T03:45:08.987Z,20.57
2023-08-16T03:47:42.204Z,20.56
2023-08-16T03:50:14.986Z,20.54
2023-08-16T03:52:47.778Z,20.52
2023-08-16T03:55:20.711Z,20.50
2023-08-16T03:57:53.650Z,20.48
2023-08-16T04:00:28.547Z,20.46
2023-08-16T04:03:01.847Z,20.46
2023-08-16T04:05:35.305Z,20.44
2023-08-16T04:08:08.018Z,20.43
2023-08-16T04:10:41.269Z,20.42
2023-08-16T04:13:15.755Z,20.41
2023-08-16T04:15:50.738Z,20.40
2023-08-16T04:18:23.687Z,20.40
2023-08-16T04:20:56.484Z,20.40
2023-08-16T04:23:29.176Z,20.38
2023-08-16T04:26:03.198Z,20.36
2023-08-16T04:28:35.965Z,20.34
2023-08-16T04:31:10.300Z,20.34
2023-08-16T04:33:43.060Z,20.33
2023-08-16T04:36:15.792Z,20.31
2023-08-16T04:38:48.610Z,20.31
2023-08-16T04:41:21.721Z,20.31
2023-08-16T04:43:54.420Z,20.32
2023-08-16T04:46:28.715Z,20.31
2023-08-16T04:49:01.559Z,20.32
2023-08-16T04:51:34.656Z,20.34
2023-08-16T04:54:08.717Z,20.33
2023-08-16T04:56:41.527Z,20.34
2023-08-16T04:59:14.296Z,20.38
2023-08-16T05:01:48.910Z,20.40
2023-08-16T05:04:21.767Z,20.43
2023-08-16T05:06:54.545Z,20.45
2023-08-16T05:09:27.237Z,20.48
2023-08-16T05:11:59.967Z,20.51
2023-08-16T05:14:32.714Z,20.53
2023-08-16T05:17:07.320Z,20.56
2023-08-16T05:19:40.132Z,20.62
2023-08-16T05:22:12.833Z,20.68
2023-08-16T05:24:46.024Z,20.77
2023-08-16T05:27:18.841Z,20.83
2023-08-16T05:29:52.156Z,20.94
2023-08-16T05:32:26.425Z,21.07
2023-08-16T05:34:59.186Z,21.26
2023-08-16T05:37:31.899Z,21.50
2023-08-16T05:40:07.023Z,21.75
2023-08-16T05:42:40.226Z,22.03
2023-08-16T05:45:13.040Z,22.30
2023-08-16T05:47:47.182Z,22.58
2023-08-16T05:50:19.897Z,22.82
2023-08-16T05:52:52.744Z,23.05
2023-08-16T05:55:25.604Z,23.27
2023-08-16T05:57:58.292Z,23.44
2023-08-16T06:00:31.048Z,23.61
2023-08-16T06:03:05.734Z,23.76
2023-08-16T06:05:38.553Z,23.91
2023-08-16T06:08:11.234Z,24.04
2023-08-16T06:10:43.970Z,24.16
2023-08-16T06:13:16.649Z,24.29
2023-08-16T06:15:49.380Z,24.41
2023-08-16T06:18:23.513Z,24.54
2023-08-16T06:20:56.373Z,24.64
2023-08-16T06:23:29.356Z,24.73
2023-08-16T06:26:02.105Z,24.84
2023-08-16T06:28:34.848Z,24.94
2023-08-16T06:31:07.638Z,25.03
2023-08-16T06:33:41.990Z,25.12
2023-08-16T06:36:14.996Z,25.21
2023-08-16T06:38:47.780Z,25.29
2023-08-16T06:41:20.913Z,25.37
2023-08-16T06:43:53.620Z,25.44
2023-08-16T06:46:26.369Z,25.54
2023-08-16T06:49:01.968Z,25.59
2023-08-16T06:51:34.869Z,25.67
2023-08-16T06:54:07.797Z,25.75
2023-08-16T06:56:40.547Z,25.82
2023-08-16T06:59:13.419Z,25.89
2023-08-16T07:01:46.217Z,25.99
2023-08-16T07:04:20.294Z,26.04
2023-08-16T07:06:53.066Z,26.14
2023-08-16T07:09:25.926Z,26.22
2023-08-16T07:11:58.667Z,26.29
2023-08-16T07:14:31.838Z,26.38
2023-08-16T07:17:06.856Z,26.46
2023-08-16T07:19:41.379Z,26.54
2023-08-16T07:22:14.348Z,26.63
2023-08-16T07:24:47.221Z,26.72
2023-08-16T07:27:20.599Z,26.80
2023-08-16T07:29:53.767Z,26.90
2023-08-16T07:32:26.731Z,26.99
2023-08-16T07:35:01.222Z,27.10
2023-08-16T07:37:34.190Z,27.19
2023-08-16T07:40:07.519Z,27.28
2023-08-16T07:42:40.434Z,27.36
2023-08-16T07:45:13.716Z,27.44
2023-08-16T07:47:46.601Z,27.52
2023-08-16T07:50:21.540Z,27.60
2023-08-16T07:52:54.957Z,27.69
2023-08-16T07:55:33.173Z,27.77
2023-08-16T07:58:06.074Z,27.85
2023-08-16T08:00:39.065Z,27.95
2023-08-16T08:03:12.069Z,28.03
2023-08-16T08:05:46.185Z,28.11
2023-08-16T08:08:18.929Z,28.18
2023-08-16T08:10:51.765Z,28.27
2023-08-16T08:13:24.956Z,28.34
2023-08-16T08:15:57.718Z,28.41
2023-08-16T08:18:30.793Z,28.46
2023-08-16T08:21:05.080Z,28.53
2023-08-16T08:23:37.820Z,28.59
2023-08-16T08:26:12.084Z,28.62
2023-08-16T08:28:45.308Z,28.66
2023-08-16T08:31:18.183Z,28.73
2023-08-16T08:33:50.870Z,28.77
2023-08-16T08:36:24.983Z,28.86
2023-08-16T08:38:57.719Z,28.94
2023-08-16T08:41:47.292Z,29.03
2023-08-16T08:44:21.976Z,29.13
2023-08-16T08:47:03.463Z,29.20
2023-08-16T08:49:41.448Z,29.30
2023-08-16T08:52:17.065Z,29.39
2023-08-16T08:54:50.394Z,29.46
2023-08-16T08:57:24.021Z,29.54
2023-08-16T08:59:58.194Z,29.61
2023-08-16T09:02:31.978Z,29.69
2023-08-16T09:05:06.160Z,29.76
2023-08-16T09:07:41.866Z,29.82
2023-08-16T09:10:15.059Z,29.88
2023-08-16T09:12:47.942Z,29.93
2023-08-16T09:15:20.682Z,29.97
2023-08-16T09:17:54.819Z,30.02
2023-08-16T09:20:27.631Z,30.09
2023-08-16T09:23:01.704Z,30.12
2023-08-16T09:25:34.397Z,30.18
2023-08-16T09:28:10.225Z,30.21
2023-08-16T09:30:43.181Z,30.26
2023-08-16T09:33:16.360Z,30.30
2023-08-16T09:35:50.607Z,30.34
2023-08-16T09:41:01.101Z,30.42
2023-08-16T09:43:33.921Z,30.46
2023-08-16T09:46:07.412Z,30.48
2023-08-16T09:49:10.424Z,30.51
2023-08-16T09:54:13.478Z,30.55
2023-08-16T10:07:12.977Z,30.68
2023-08-16T10:09:48.553Z,30.70
2023-08-16T10:12:21.184Z,30.72
2023-08-16T10:14:53.875Z,30.74
2023-08-16T10:17:29.512Z,30.75
2023-08-16T10:20:02.420Z,30.78
2023-08-16T10:22:38.753Z,30.81
2023-08-16T10:25:18.392Z,30.83
2023-08-16T10:27:52.415Z,30.84
2023-08-16T10:30:26.058Z,30.88
2023-08-16T10:33:01.878Z,30.90
2023-08-16T10:35:35.434Z,30.92
2023-08-16T10:38:08.117Z,30.93
2023-08-16T10:40:42.191Z,30.96
2023-08-16T10:43:15.905Z,30.97
2023-08-16T10:48:25.688Z,31.01
2023-08-16T10:50:58.914Z,31.02
2023-08-16T10:53:32.072Z,31.04
2023-08-16T10:56:10.029Z,31.05
2023-08-16T10:58:48.330Z,31.06
2023-08-16T11:01:21.604Z,31.08
2023-08-16T11:04:01.341Z,31.08
2023-08-16T11:06:34.372Z,31.08
2023-08-16T11:09:09.441Z,31.09
2023-08-16T11:11:46.748Z,31.10
2023-08-16T11:14:19.766Z,31.11
2023-08-16T11:16:55.649Z,31.11
2023-08-16T11:19:28.416Z,31.11
2023-08-16T11:22:02.994Z,31.12
2023-08-16T11:24:36.610Z,31.14
2023-08-16T11:27:10.662Z,31.15
2023-08-16T11:29:49.398Z,31.14
